Time;durP1;ratioP1;P1;durP2;ratioP2;P2;SDS_P1;SDS_P2;PMS_P1;PMS_P2;Temp;Humidity;BMP_temperature;BMP_pressure;BME280_temperature;BME280_humidity;BME280_pressure;Samples;Min_cycle;Max_cycle;Signal;HPM_P1;HPM_P2
2023/12/16 04:00:57;;;;;;;1.92;1.58;;;24.20;29.20;;;;;;5733912;23;45160;-88
2023/12/16 04:03:23;;;;;;;2.25;1.48;;;24.20;29.20;;;;;;4980681;28;44795;-86
2023/12/16 04:05:49;;;;;;;1.55;1.45;;;24.10;29.20;;;;;;4980652;28;46147;-85
2023/12/16 04:08:16;;;;;;;1.90;1.60;;;24.20;29.20;;;;;;4982490;28;46642;-87
2023/12/16 04:10:41;;;;;;;1.75;1.40;;;24.10;29.20;;;;;;4994370;28;45127;-85
2023/12/16 04:13:07;;;;;;;2.00;1.55;;;24.10;29.20;;;;;;4991398;28;44921;-87
2023/12/16 04:15:33;;;;;;;1.77;1.50;;;24.10;29.20;;;;;;4983883;28;45197;-91
2023/12/16 04:18:00;;;;;;;2.00;1.60;;;24.10;29.20;;;;;;5000121;28;45740;-85
2023/12/16 04:20:26;;;;;;;1.67;1.33;;;24.10;29.20;;;;;;4979999;28;45255;-86
2023/12/16 04:22:52;;;;;;;1.50;1.40;;;24.10;29.30;;;;;;5004280;28;45791;-86
2023/12/16 04:25:21;;;;;;;1.73;1.63;;;24.10;29.20;;;;;;5000319;28;45043;-85
2023/12/16 04:27:47;;;;;;;3.00;1.50;;;24.10;29.20;;;;;;4985257;28;45572;-87
2023/12/16 04:30:16;;;;;;;2.10;1.50;;;24.10;29.20;;;;;;4986155;28;45575;-92
2023/12/16 04:32:42;;;;;;;2.47;1.60;;;24.10;29.20;;;;;;5001443;28;45191;-84
2023/12/16 04:35:08;;;;;;;1.52;1.33;;;24.10;29.20;;;;;;4985914;28;45811;-87
2023/12/16 04:37:34;;;;;;;1.40;1.30;;;24.10;29.20;;;;;;4973800;28;46599;-85
2023/12/16 04:39:59;;;;;;;1.40;1.30;;;24.10;29.30;;;;;;4985375;28;45111;-87
2023/12/16 04:42:27;;;;;;;1.40;1.30;;;24.10;29.30;;;;;;4999693;28;45430;-86
2023/12/16 04:44:54;;;;;;;1.77;1.30;;;24.10;29.30;;;;;;4982267;28;45355;-89
2023/12/16 04:47:20;;;;;;;1.50;1.40;;;24.10;29.30;;;;;;5008892;28;45486;-90
2023/12/16 04:49:46;;;;;;;1.67;1.52;;;24.00;29.30;;;;;;4999047;28;45676;-86
2023/12/16 04:52:13;;;;;;;2.00;1.60;;;24.10;29.30;;;;;;4985898;28;45209;-84
2023/12/16 04:54:38;;;;;;;1.55;1.40;;;24.00;29.20;;;;;;5018344;28;45262;-87
2023/12/16 04:57:04;;;;;;;2.25;1.55;;;24.00;29.20;;;;;;4985496;28;45931;-86
2023/12/16 04:59:31;;;;;;;1.40;1.20;;;24.00;29.30;;;;;;5004247;28;45258;-85
2023/12/16 05:01:57;;;;;;;1.50;1.23;;;24.00;29.30;;;;;;5018659;28;45122;-86
2023/12/16 05:04:22;;;;;;;1.58;1.33;;;24.00;29.30;;;;;;5016606;28;45489;-86
2023/12/16 05:06:48;;;;;;;1.80;1.30;;;24.00;29.30;;;;;;4971392;28;48436;-85
2023/12/16 05:09:13;;;;;;;2.00;1.63;;;24.00;29.30;;;;;;5005245;28;44919;-84
2023/12/16 05:11:39;;;;;;;1.85;1.55;;;24.00;29.30;;;;;;4985052;28;44761;-87
2023/12/16 05:14:05;;;;;;;1.90;1.50;;;24.00;29.30;;;;;;4973040;28;45442;-86
2023/12/16 05:16:31;;;;;;;1.92;1.60;;;24.00;29.30;;;;;;5013260;28;46439;-85
2023/12/16 05:18:59;;;;;;;1.42;1.27;;;24.00;29.30;;;;;;5019858;28;45086;-85
2023/12/16 05:21:43;;;;;;;1.65;1.55;;;23.90;29.30;;;;;;4985131;28;45316;-88
2023/12/16 05:24:09;;;;;;;2.33;1.42;;;23.90;29.30;;;;;;4995974;28;45602;-87
2023/12/16 05:26:34;;;;;;;1.67;1.50;;;23.90;29.30;;;;;;4969932;28;45305;-86
2023/12/16 05:29:00;;;;;;;1.70;1.30;;;23.90;29.30;;;;;;4962680;28;44730;-88
2023/12/16 05:31:26;;;;;;;1.48;1.35;;;23.90;29.40;;;;;;4994650;28;44847;-87
2023/12/16 05:33:52;;;;;;;2.00;1.58;;;23.90;29.40;;;;;;4991233;28;45517;-85
2023/12/16 05:36:18;;;;;;;1.93;1.37;;;23.90;29.40;;;;;;4965961;28;47438;-84
2023/12/16 05:38:44;;;;;;;2.58;1.55;;;23.90;29.40;;;;;;4980078;28;45451;-85
2023/12/16 05:41:13;;;;;;;1.80;1.35;;;23.90;29.40;;;;;;5003799;28;45507;-87
2023/12/16 05:43:39;;;;;;;1.77;1.50;;;23.90;29.40;;;;;;5008519;28;45029;-89
2023/12/16 05:46:07;;;;;;;1.42;1.33;;;23.80;29.30;;;;;;4979916;28;45907;-87
2023/12/16 05:48:35;;;;;;;1.60;1.50;;;23.90;29.40;;;;;;4982874;28;45441;-86
2023/12/16 05:51:05;;;;;;;1.85;1.42;;;23.80;29.30;;;;;;5003800;28;45129;-90
2023/12/16 05:53:37;;;;;;;1.73;1.48;;;23.80;29.30;;;;;;5000280;28;45455;-85
2023/12/16 05:56:06;;;;;;;1.67;1.40;;;23.80;29.30;;;;;;4992348;28;45878;-84
2023/12/16 05:58:32;;;;;;;1.73;1.38;;;23.80;29.40;;;;;;5007275;28;44916;-85
2023/12/16 06:00:58;;;;;;;1.55;1.40;;;23.80;29.30;;;;;;4975425;28;45247;-86
2023/12/16 06:03:25;;;;;;;1.30;1.20;;;23.80;29.40;;;;;;5019317;28;44796;-85
2023/12/16 06:05:50;;;;;;;1.73;1.33;;;23.80;29.30;;;;;;4964403;28;46572;-85
2023/12/16 06:08:16;;;;;;;2.63;1.50;;;23.80;29.40;;;;;;4960600;28;45521;-85
2023/12/16 06:10:43;;;;;;;1.87;1.43;;;23.80;29.40;;;;;;4999412;28;59898;-87
2023/12/16 06:13:10;;;;;;;1.60;1.40;;;23.80;29.40;;;;;;4977653;28;45604;-89
2023/12/16 06:15:36;;;;;;;1.90;1.48;;;23.70;29.40;;;;;;5001751;28;46704;-85
2023/12/16 06:18:04;;;;;;;1.58;1.48;;;23.70;29.40;;;;;;5001986;28;44800;-85
2023/12/16 06:20:30;;;;;;;1.75;1.40;;;23.70;29.40;;;;;;4998941;28;45004;-85
2023/12/16 06:22:56;;;;;;;1.65;1.48;;;23.70;29.40;;;;;;4981406;28;44815;-85
2023/12/16 06:25:22;;;;;;;2.57;1.20;;;23.70;29.40;;;;;;4984519;28;45064;-84
2023/12/16 06:27:47;;;;;;;2.20;1.30;;;23.70;29.50;;;;;;4993088;28;45318;-84
2023/12/16 06:30:14;;;;;;;2.67;1.43;;;23.70;29.40;;;;;;4965810;22;44918;-61
2023/12/16 06:32:39;;;;;;;1.60;1.50;;;23.70;29.50;;;;;;4946702;28;47011;-53
2023/12/16 06:35:07;;;;;;;1.60;1.30;;;23.70;29.50;;;;;;4943965;28;47969;-57
2023/12/16 06:37:33;;;;;;;1.90;1.37;;;23.70;29.50;;;;;;4945533;28;47169;-49
2023/12/16 06:39:58;;;;;;;2.00;1.43;;;23.70;29.50;;;;;;4950977;28;46082;-50
2023/12/16 06:42:24;;;;;;;1.93;1.40;;;23.70;29.50;;;;;;4940360;28;45837;-49
2023/12/16 06:44:49;;;;;;;2.33;1.57;;;23.70;29.50;;;;;;4937376;28;46566;-49
2023/12/16 06:47:15;;;;;;;1.60;1.43;;;23.70;29.50;;;;;;4920104;28;45299;-56
2023/12/16 06:49:41;;;;;;;1.55;1.45;;;23.70;29.50;;;;;;4945734;28;45474;-56
2023/12/16 06:52:06;;;;;;;2.50;1.60;;;23.70;29.50;;;;;;4938317;28;45843;-50
2023/12/16 06:54:33;;;;;;;1.60;1.50;;;23.60;29.50;;;;;;4953448;28;45398;-49
2023/12/16 06:56:58;;;;;;;1.75;1.60;;;23.70;29.50;;;;;;4943682;28;45657;-52
2023/12/16 06:59:24;;;;;;;2.30;1.77;;;23.70;29.50;;;;;;4932877;28;45241;-52
2023/12/16 07:01:49;;;;;;;2.10;1.60;;;23.60;29.50;;;;;;4934992;28;45253;-50
2023/12/16 07:04:15;;;;;;;2.17;1.63;;;23.70;29.50;;;;;;4931551;28;45422;-44
2023/12/16 07:06:40;;;;;;;1.90;1.70;;;23.60;29.50;;;;;;4937469;28;45682;-43
2023/12/16 07:09:06;;;;;;;1.77;1.60;;;23.60;29.50;;;;;;4943526;28;45087;-42
2023/12/16 07:11:34;;;;;;;1.63;1.50;;;23.60;29.50;;;;;;4936281;28;45459;-43
2023/12/16 07:14:03;;;;;;;1.90;1.70;;;23.60;29.50;;;;;;4927080;28;45967;-44
2023/12/16 07:16:30;;;;;;;2.13;1.63;;;23.60;29.50;;;;;;4922188;28;46976;-45
2023/12/16 07:18:56;;;;;;;2.13;1.70;;;23.60;29.60;;;;;;4949300;28;45675;-43
2023/12/16 07:21:22;;;;;;;1.83;1.70;;;23.60;29.60;;;;;;4939793;28;45443;-44
2023/12/16 07:23:47;;;;;;;1.70;1.50;;;23.60;29.60;;;;;;4953994;28;45556;-46
2023/12/16 07:26:13;;;;;;;1.97;1.63;;;23.60;29.60;;;;;;4935724;28;45233;-43
2023/12/16 07:28:38;;;;;;;2.30;1.80;;;23.50;29.50;;;;;;4945416;28;45380;-59
2023/12/16 07:31:04;;;;;;;1.83;1.70;;;23.50;29.60;;;;;;4906075;28;45783;-53
2023/12/16 07:33:30;;;;;;;1.70;1.60;;;23.50;29.60;;;;;;4924105;28;45497;-52
2023/12/16 07:35:55;;;;;;;2.17;1.70;;;23.60;29.60;;;;;;4924170;28;45378;-52
2023/12/16 07:38:21;;;;;;;2.75;1.80;;;23.50;29.60;;;;;;4929049;28;46206;-52
2023/12/16 07:40:46;;;;;;;1.98;1.77;;;23.50;29.60;;;;;;4923077;28;45201;-50
2023/12/16 07:43:12;;;;;;;1.98;1.77;;;23.50;29.60;;;;;;4930673;28;46432;-41
2023/12/16 07:45:37;;;;;;;3.03;1.90;;;23.50;29.60;;;;;;4906829;28;45225;-43
2023/12/16 07:48:03;;;;;;;2.20;1.80;;;23.50;29.60;;;;;;4926850;28;45404;-42
2023/12/16 07:50:28;;;;;;;2.47;2.00;;;23.50;29.60;;;;;;4934267;28;45648;-43
2023/12/16 07:52:54;;;;;;;2.30;1.90;;;23.50;29.60;;;;;;4936380;28;45436;-46
2023/12/16 07:55:21;;;;;;;2.10;1.73;;;23.50;29.60;;;;;;4920319;28;45919;-42
2023/12/16 07:57:46;;;;;;;2.20;1.88;;;23.50;29.70;;;;;;4932304;28;45446;-44
2023/12/16 08:00:12;;;;;;;2.03;1.77;;;23.50;29.70;;;;;;4919415;28;44864;-42
2023/12/16 08:02:38;;;;;;;3.05;2.10;;;23.50;29.70;;;;;;4905444;28;46695;-43
2023/12/16 08:05:06;;;;;;;2.27;1.80;;;23.40;29.60;;;;;;4931845;28;45313;-41
2023/12/16 08:07:31;;;;;;;2.42;1.98;;;23.50;29.70;;;;;;4937443;28;45536;-42
2023/12/16 08:09:57;;;;;;;2.17;1.92;;;23.50;29.70;;;;;;4919944;28;45588;-43
2023/12/16 08:12:22;;;;;;;2.20;1.90;;;23.40;29.70;;;;;;4916538;28;46110;-53
2023/12/16 08:14:48;;;;;;;2.47;1.70;;;23.40;29.70;;;;;;4924451;28;45252;-48
2023/12/16 08:17:13;;;;;;;2.13;1.87;;;23.50;29.70;;;;;;4911819;28;45354;-53
2023/12/16 08:19:39;;;;;;;2.20;1.90;;;23.40;29.70;;;;;;4937835;28;45412;-48
2023/12/16 08:22:04;;;;;;;2.43;1.80;;;23.40;29.70;;;;;;4923279;28;45394;-51
2023/12/16 08:24:32;;;;;;;2.10;1.90;;;23.40;29.70;;;;;;4947063;28;45308;-53
2023/12/16 08:26:58;;;;;;;2.40;2.10;;;23.40;29.70;;;;;;4926379;28;46258;-48
2023/12/16 08:29:23;;;;;;;2.10;1.90;;;23.40;29.70;;;;;;4931783;28;46697;-54
2023/12/16 08:31:49;;;;;;;2.17;1.97;;;23.40;29.70;;;;;;4911062;28;45947;-53
2023/12/16 08:34:14;;;;;;;2.00;1.80;;;23.40;29.70;;;;;;4948343;28;45168;-56
2023/12/16 08:36:41;;;;;;;2.10;1.90;;;23.40;29.70;;;;;;4934326;28;46033;-54
2023/12/16 08:39:07;;;;;;;1.97;1.80;;;23.40;29.80;;;;;;4953642;28;45188;-44
2023/12/16 08:41:32;;;;;;;2.20;1.90;;;23.30;29.70;;;;;;4942100;28;45370;-44
2023/12/16 08:43:58;;;;;;;3.00;2.30;;;23.40;29.80;;;;;;4956507;28;44925;-52
2023/12/16 08:46:25;;;;;;;1.90;1.63;;;23.30;29.70;;;;;;4915718;28;46687;-57
2023/12/16 08:48:53;;;;;;;2.25;2.00;;;23.30;29.80;;;;;;4946534;28;45792;-51
2023/12/16 08:51:22;;;;;;;2.63;2.00;;;23.30;29.80;;;;;;4933959;28;45660;-52
2023/12/16 08:53:48;;;;;;;2.53;1.98;;;23.30;29.80;;;;;;4955520;28;45692;-48
2023/12/16 08:56:14;;;;;;;2.10;1.90;;;23.30;29.80;;;;;;4945249;28;46019;-49
2023/12/16 08:58:39;;;;;;;2.10;1.90;;;23.30;29.80;;;;;;4933739;28;45628;-47
2023/12/16 09:01:06;;;;;;;2.20;1.90;;;23.30;29.80;;;;;;4933294;28;45465;-51
2023/12/16 09:03:31;;;;;;;3.50;2.15;;;23.30;29.80;;;;;;4930782;28;54861;-52
2023/12/16 09:05:57;;;;;;;2.28;2.08;;;23.30;29.80;;;;;;4940140;28;45443;-54
2023/12/16 09:08:22;;;;;;;2.13;1.90;;;23.30;29.80;;;;;;4949320;28;48773;-48
2023/12/16 09:10:48;;;;;;;2.17;1.97;;;23.30;29.80;;;;;;4944731;28;45680;-51
2023/12/16 09:13:14;;;;;;;2.53;2.30;;;23.30;29.80;;;;;;4953326;28;45645;-51
2023/12/16 09:15:40;;;;;;;2.35;2.00;;;23.20;29.80;;;;;;4910011;28;45588;-57
2023/12/16 09:18:06;;;;;;;2.60;2.10;;;23.20;29.80;;;;;;4931050;28;46150;-50
2023/12/16 09:20:31;;;;;;;2.30;2.10;;;23.20;29.80;;;;;;4937014;28;45437;-48
2023/12/16 09:22:59;;;;;;;3.35;2.30;;;23.30;29.90;;;;;;4952849;28;45180;-52
2023/12/16 09:25:24;;;;;;;3.30;2.25;;;23.30;29.90;;;;;;4941381;28;45307;-48
2023/12/16 09:27:50;;;;;;;2.40;2.20;;;23.20;29.90;;;;;;4950851;28;45229;-48
2023/12/16 09:30:16;;;;;;;2.80;2.30;;;23.20;29.90;;;;;;4937318;28;45234;-53
2023/12/16 09:32:44;;;;;;;2.90;2.40;;;23.20;29.90;;;;;;4902469;28;46239;-51
2023/12/16 09:35:09;;;;;;;3.10;2.40;;;23.20;29.90;;;;;;4926092;28;44856;-56
2023/12/16 09:37:35;;;;;;;2.53;2.33;;;23.20;29.90;;;;;;4946158;28;45799;-45
2023/12/16 09:40:00;;;;;;;3.33;2.60;;;23.20;29.90;;;;;;4935554;28;45592;-48
2023/12/16 09:42:26;;;;;;;3.03;2.58;;;23.20;29.90;;;;;;4938253;28;45257;-48
2023/12/16 09:44:51;;;;;;;2.60;2.40;;;23.20;29.90;;;;;;4951890;28;44666;-54
2023/12/16 09:47:17;;;;;;;2.97;2.67;;;23.20;30.00;;;;;;4915257;28;47138;-57
2023/12/16 09:49:43;;;;;;;2.75;2.55;;;23.20;30.00;;;;;;4946925;28;46293;-46
2023/12/16 09:52:08;;;;;;;3.42;2.42;;;23.10;30.00;;;;;;4941297;28;45862;-52
2023/12/16 09:54:34;;;;;;;3.03;2.70;;;23.10;29.90;;;;;;4947348;28;46044;-49
2023/12/16 09:56:59;;;;;;;3.53;2.63;;;23.10;30.00;;;;;;4941408;28;45142;-52
2023/12/16 09:59:25;;;;;;;3.13;2.67;;;23.10;30.00;;;;;;4946792;28;47165;-55
2023/12/16 10:01:53;;;;;;;3.38;2.85;;;23.10;30.00;;;;;;4927374;28;45296;-48
2023/12/16 10:04:22;;;;;;;2.75;2.45;;;23.10;30.00;;;;;;4932822;28;45021;-48
2023/12/16 10:06:48;;;;;;;3.60;2.67;;;23.10;30.00;;;;;;4938629;28;45283;-51
2023/12/16 10:09:14;;;;;;;3.87;2.73;;;23.10;30.00;;;;;;4952007;28;45511;-52
2023/12/16 10:11:40;;;;;;;3.10;2.50;;;23.10;30.00;;;;;;4940670;28;46112;-57
2023/12/16 10:14:05;;;;;;;3.13;2.72;;;23.10;30.00;;;;;;4970518;28;45669;-50
2023/12/16 10:16:31;;;;;;;3.73;2.70;;;23.10;30.00;;;;;;4912649;28;50556;-50
2023/12/16 10:18:57;;;;;;;2.83;2.50;;;23.10;30.00;;;;;;4937565;28;46451;-52
2023/12/16 10:21:31;;;;;;;2.95;2.42;;;23.10;30.00;;;;;;4935583;28;45280;-46
2023/12/16 10:23:59;;;;;;;3.27;2.80;;;23.10;30.00;;;;;;4951235;28;44880;-50
2023/12/16 10:26:26;;;;;;;3.17;2.60;;;23.10;30.00;;;;;;4939354;28;45796;-54
2023/12/16 10:28:52;;;;;;;2.60;2.35;;;23.10;30.00;;;;;;4960042;28;45289;-51
2023/12/16 10:31:18;;;;;;;3.22;2.50;;;23.10;30.00;;;;;;4906480;28;45994;-52
2023/12/16 10:33:50;;;;;;;3.50;2.67;;;23.00;30.00;;;;;;4933026;28;45556;-58
2023/12/16 10:36:16;;;;;;;3.20;2.35;;;23.00;30.00;;;;;;4920957;28;45850;-42
2023/12/16 10:38:42;;;;;;;3.35;2.60;;;23.00;30.00;;;;;;4914169;28;53299;-41
2023/12/16 10:41:09;;;;;;;3.47;2.50;;;23.00;30.00;;;;;;4937028;28;46964;-41
2023/12/16 10:43:34;;;;;;;2.97;2.45;;;23.00;30.00;;;;;;4921731;28;45185;-43
2023/12/16 10:46:04;;;;;;;3.03;2.53;;;23.00;30.00;;;;;;4925156;28;45365;-45
2023/12/16 10:48:35;;;;;;;3.00;2.63;;;23.00;30.00;;;;;;4933588;28;45544;-42
2023/12/16 10:51:05;;;;;;;3.13;2.57;;;23.00;30.10;;;;;;4917691;28;46057;-45
2023/12/16 10:53:33;;;;;;;3.30;2.58;;;23.00;30.10;;;;;;4921682;28;46678;-45
2023/12/16 10:56:00;;;;;;;2.92;2.40;;;23.00;30.10;;;;;;4911594;28;45988;-44
2023/12/16 10:58:29;;;;;;;3.13;2.47;;;22.90;30.10;;;;;;4924415;28;45579;-43
2023/12/16 11:01:00;;;;;;;2.90;2.40;;;23.00;30.10;;;;;;4918588;28;45505;-44
2023/12/16 11:03:29;;;;;;;2.92;2.30;;;22.90;30.10;;;;;;4921925;28;46067;-43
2023/12/16 11:05:58;;;;;;;2.55;2.30;;;22.90;30.20;;;;;;4949203;28;45928;-44
2023/12/16 11:08:24;;;;;;;3.47;2.42;;;22.90;30.10;;;;;;4937187;28;45584;-41
2023/12/16 11:10:50;;;;;;;2.93;2.50;;;22.90;30.20;;;;;;4896506;28;45559;-49
2023/12/16 11:13:16;;;;;;;3.77;2.47;;;22.90;30.20;;;;;;4926632;28;45460;-56
2023/12/16 11:15:42;;;;;;;2.90;2.20;;;22.90;30.20;;;;;;4906982;28;45299;-54
2023/12/16 11:18:11;;;;;;;3.40;2.40;;;22.90;30.20;;;;;;4924132;28;45370;-51
2023/12/16 11:20:48;;;;;;;3.17;2.40;;;22.90;30.20;;;;;;4920651;28;45396;-48
2023/12/16 11:23:16;;;;;;;2.83;2.20;;;22.90;30.20;;;;;;4936002;28;46239;-54
2023/12/16 11:25:42;;;;;;;3.53;2.77;;;22.90;30.20;;;;;;4927215;28;45878;-56
2023/12/16 11:28:08;;;;;;;2.75;2.13;;;22.90;30.20;;;;;;4934795;28;45969;-52
2023/12/16 11:30:34;;;;;;;2.97;2.22;;;22.90;30.20;;;;;;4919193;28;45522;-51
2023/12/16 11:33:00;;;;;;;3.00;2.33;;;22.90;30.30;;;;;;4935243;28;47368;-40
2023/12/16 11:35:35;;;;;;;3.50;2.20;;;22.90;30.30;;;;;;4887233;28;45519;-56
2023/12/16 11:38:01;;;;;;;2.90;2.33;;;22.90;30.30;;;;;;4931430;28;47318;-52
2023/12/16 11:40:51;;;;;;;3.65;2.40;;;22.90;30.30;;;;;;4901961;28;45039;-46
2023/12/16 11:43:17;;;;;;;3.00;2.10;;;22.90;30.30;;;;;;4938886;28;45218;-48
2023/12/16 11:45:44;;;;;;;2.90;2.23;;;22.90;30.30;;;;;;4919578;28;45345;-47
2023/12/16 11:48:10;;;;;;;3.35;2.38;;;22.90;30.30;;;;;;4937398;28;45417;-57
2023/12/16 11:50:37;;;;;;;3.33;2.03;;;22.90;30.40;;;;;;4911607;28;45509;-50
2023/12/16 11:53:03;;;;;;;4.07;2.38;;;22.90;30.40;;;;;;4929991;28;45683;-52
2023/12/16 11:55:28;;;;;;;3.17;2.00;;;22.90;30.40;;;;;;4900716;28;45291;-48
2023/12/16 11:57:54;;;;;;;3.20;2.30;;;22.90;30.40;;;;;;4938568;28;46079;-49
2023/12/16 12:00:21;;;;;;;2.78;2.17;;;22.90;30.50;;;;;;4924059;28;45414;-58
2023/12/16 12:02:49;;;;;;;2.87;2.07;;;22.90;30.40;;;;;;4929530;28;45617;-52
2023/12/16 12:05:14;;;;;;;2.90;1.90;;;22.80;30.30;;;;;;4933305;28;46016;-50
2023/12/16 12:07:40;;;;;;;3.70;2.20;;;22.80;30.40;;;;;;4934719;28;45457;-56
2023/12/16 12:10:06;;;;;;;3.53;2.20;;;22.80;30.40;;;;;;4939471;28;45401;-57
2023/12/16 12:12:31;;;;;;;3.25;2.17;;;22.80;30.40;;;;;;4889350;28;45499;-51
2023/12/16 12:14:57;;;;;;;3.45;2.30;;;22.80;30.40;;;;;;4938631;28;45655;-46
2023/12/16 12:17:23;;;;;;;3.23;1.90;;;22.80;30.40;;;;;;4889351;28;45893;-58
2023/12/16 12:19:49;;;;;;;2.77;2.10;;;22.80;30.40;;;;;;4934119;28;47063;-54
2023/12/16 12:22:14;;;;;;;2.90;2.00;;;22.80;30.40;;;;;;4935313;28;45321;-49
2023/12/16 12:24:40;;;;;;;2.70;1.83;;;22.80;30.40;;;;;;4934885;28;47118;-49
2023/12/16 12:27:06;;;;;;;2.38;1.92;;;22.80;30.40;;;;;;4918351;28;46261;-58
2023/12/16 12:30:04;;;;;;;2.97;2.20;;;22.80;30.40;;;;;;4925160;28;45405;-56
2023/12/16 12:32:30;;;;;;;1.92;1.60;;;22.80;30.40;;;;;;4898295;28;45256;-48
2023/12/16 12:35:06;;;;;;;2.75;1.85;;;22.80;30.50;;;;;;4921642;28;45251;-53
2023/12/16 12:37:39;;;;;;;2.87;1.60;;;22.80;30.50;;;;;;4922442;28;45592;-49
2023/12/16 12:40:16;;;;;;;2.85;1.63;;;22.80;30.50;;;;;;4924154;28;45249;-58
2023/12/16 12:42:53;;;;;;;3.30;1.90;;;22.70;30.50;;;;;;4922271;28;45776;-57
2023/12/16 12:45:35;;;;;;;3.30;1.90;;;22.70;30.50;;;;;;4915505;28;44793;-57
2023/12/16 12:48:16;;;;;;;2.50;1.80;;;22.70;30.50;;;;;;4921115;28;45046;-49
2023/12/16 12:50:43;;;;;;;3.33;2.10;;;22.70;30.60;;;;;;4926326;28;45515;-50
2023/12/16 12:53:21;;;;;;;2.83;1.65;;;22.70;30.60;;;;;;4929300;28;45229;-50
2023/12/16 12:55:47;;;;;;;3.20;1.88;;;22.70;30.50;;;;;;4914728;28;46669;-51
2023/12/16 12:58:13;;;;;;;2.65;1.70;;;22.70;30.60;;;;;;4937411;28;45937;-47
2023/12/16 13:00:41;;;;;;;3.13;1.80;;;22.70;30.60;;;;;;4909693;28;45473;-56
2023/12/16 13:03:07;;;;;;;3.50;1.75;;;22.70;30.60;;;;;;4932632;28;45339;-47
2023/12/16 13:05:33;;;;;;;2.25;1.73;;;22.70;30.60;;;;;;4926468;28;45399;-51
2023/12/16 13:07:58;;;;;;;2.80;1.83;;;22.70;30.60;;;;;;4941514;28;45369;-54
2023/12/16 13:10:24;;;;;;;3.38;1.70;;;22.70;30.60;;;;;;4921855;28;45582;-53
2023/12/16 13:12:53;;;;;;;2.83;1.90;;;22.70;30.60;;;;;;4932261;28;45219;-47
2023/12/16 13:15:19;;;;;;;3.90;1.90;;;22.70;30.60;;;;;;4912648;28;45325;-58
2023/12/16 13:17:46;;;;;;;2.40;1.70;;;22.70;30.70;;;;;;4934286;28;45976;-50
2023/12/16 13:20:11;;;;;;;3.58;2.00;;;22.70;30.70;;;;;;4927054;28;45614;-50
2023/12/16 13:22:37;;;;;;;2.60;2.03;;;22.70;30.70;;;;;;4934109;28;45844;-51
2023/12/16 13:25:11;;;;;;;3.97;2.60;;;22.70;30.70;;;;;;4931856;28;45386;-57
2023/12/16 13:27:42;;;;;;;3.77;2.50;;;22.60;30.70;;;;;;4944553;28;45219;-49
2023/12/16 13:30:10;;;;;;;4.32;2.33;;;22.70;30.80;;;;;;4939432;28;44666;-55
2023/12/16 13:32:40;;;;;;;3.45;2.42;;;22.60;30.70;;;;;;4935227;28;46601;-51
2023/12/16 13:35:07;;;;;;;4.45;2.67;;;22.60;30.80;;;;;;4928059;28;45485;-57
2023/12/16 13:37:33;;;;;;;3.97;2.70;;;22.60;30.80;;;;;;4940526;28;45636;-50
2023/12/16 13:39:59;;;;;;;4.45;2.67;;;22.60;30.80;;;;;;4943450;28;45262;-57
2023/12/16 13:42:24;;;;;;;4.28;2.30;;;22.60;30.90;;;;;;4937353;28;47177;-48
2023/12/16 13:44:50;;;;;;;3.73;2.30;;;22.60;30.90;;;;;;4931759;28;45507;-49
2023/12/16 13:47:16;;;;;;;5.43;2.40;;;22.60;30.90;;;;;;4921502;28;46414;-52
2023/12/16 13:49:43;;;;;;;5.18;2.42;;;22.60;30.90;;;;;;4946005;28;45065;-56
2023/12/16 13:52:09;;;;;;;4.23;2.40;;;22.60;31.00;;;;;;4932604;28;45545;-55
2023/12/16 13:54:34;;;;;;;3.63;2.17;;;22.60;31.00;;;;;;4936202;28;45304;-47
2023/12/16 13:57:01;;;;;;;4.57;2.28;;;22.60;31.00;;;;;;4922763;28;45288;-49
2023/12/16 13:59:26;;;;;;;3.77;2.07;;;22.60;31.00;;;;;;4934413;28;45195;-48
2023/12/16 14:01:52;;;;;;;5.50;2.37;;;22.70;31.10;;;;;;4911201;28;45278;-52
2023/12/16 14:04:17;;;;;;;3.97;2.37;;;22.60;31.00;;;;;;4939558;28;45600;-49
2023/12/16 14:06:43;;;;;;;4.37;2.10;;;22.70;31.10;;;;;;4934237;28;45631;-48
2023/12/16 14:09:09;;;;;;;3.17;2.10;;;22.70;31.10;;;;;;4939373;28;45470;-53
2023/12/16 14:11:34;;;;;;;3.42;2.10;;;22.70;31.10;;;;;;4916156;28;45223;-47
2023/12/16 14:14:00;;;;;;;3.90;2.30;;;22.70;31.10;;;;;;4929329;28;46608;-52
2023/12/16 14:16:25;;;;;;;4.18;1.98;;;22.70;31.10;;;;;;4914807;28;46360;-51
2023/12/16 14:18:51;;;;;;;5.50;2.63;;;22.70;31.10;;;;;;4929090;28;45664;-56
2023/12/16 14:21:19;;;;;;;3.15;1.70;;;22.80;31.10;;;;;;4921997;28;45333;-47
2023/12/16 14:23:44;;;;;;;3.97;2.03;;;22.80;31.10;;;;;;4932850;28;45379;-48
2023/12/16 14:26:10;;;;;;;3.83;2.00;;;22.80;31.10;;;;;;4914728;28;45574;-53
2023/12/16 14:28:35;;;;;;;4.50;2.35;;;22.80;31.10;;;;;;4931047;28;45288;-47
2023/12/16 14:31:01;;;;;;;3.88;2.20;;;22.90;31.20;;;;;;4916988;28;46476;-48
2023/12/16 14:33:27;;;;;;;3.67;2.20;;;22.90;31.20;;;;;;4965382;28;45837;-51
2023/12/16 14:35:53;;;;;;;4.88;2.47;;;22.90;31.20;;;;;;4931793;28;45986;-47
2023/12/16 14:38:18;;;;;;;4.13;2.10;;;22.90;31.20;;;;;;4952078;28;45356;-52
2023/12/16 14:40:44;;;;;;;3.75;2.13;;;22.90;31.10;;;;;;4947183;28;45221;-51
2023/12/16 14:43:11;;;;;;;4.18;2.10;;;23.00;31.20;;;;;;4935843;28;45739;-49
2023/12/16 14:45:36;;;;;;;3.33;2.03;;;23.00;31.10;;;;;;4939131;28;45594;-49
2023/12/16 14:48:04;;;;;;;4.17;2.27;;;23.00;31.20;;;;;;4946076;28;45651;-54
2023/12/16 14:50:30;;;;;;;4.43;2.50;;;23.00;31.10;;;;;;4943219;28;45271;-51
2023/12/16 14:52:55;;;;;;;3.63;2.17;;;23.00;31.10;;;;;;4949041;28;44978;-53
2023/12/16 14:55:21;;;;;;;4.70;2.30;;;23.10;31.10;;;;;;4948158;28;45418;-50
2023/12/16 14:57:47;;;;;;;4.20;2.37;;;23.10;31.10;;;;;;4947364;28;45265;-55
2023/12/16 15:00:14;;;;;;;4.07;2.10;;;23.10;31.10;;;;;;4932284;28;45679;-56
2023/12/16 15:02:40;;;;;;;3.95;2.15;;;23.10;31.10;;;;;;4941346;28;45269;-57
2023/12/16 15:05:06;;;;;;;5.20;2.20;;;23.10;31.00;;;;;;4948885;28;46499;-58
2023/12/16 15:07:32;;;;;;;5.03;2.40;;;23.20;31.10;;;;;;4931370;28;45288;-54
2023/12/16 15:09:58;;;;;;;3.97;2.03;;;23.20;31.00;;;;;;4958304;28;45183;-52
2023/12/16 15:12:25;;;;;;;3.30;1.83;;;23.20;31.00;;;;;;4947783;28;45391;-52
2023/12/16 15:14:51;;;;;;;3.65;2.22;;;23.20;31.00;;;;;;4955754;28;45743;-55
2023/12/16 15:17:17;;;;;;;4.93;2.23;;;23.30;31.00;;;;;;4936007;28;45654;-51
2023/12/16 15:19:43;;;;;;;4.22;2.40;;;23.30;31.00;;;;;;4926467;28;45217;-53
2023/12/16 15:22:09;;;;;;;4.07;2.40;;;23.30;30.90;;;;;;4942139;28;46148;-49
2023/12/16 15:24:35;;;;;;;4.22;2.63;;;23.30;30.90;;;;;;4933621;28;45704;-49
2023/12/16 15:27:00;;;;;;;4.35;2.40;;;23.30;30.80;;;;;;4940887;28;46367;-52
2023/12/16 15:29:26;;;;;;;4.97;2.40;;;23.40;30.80;;;;;;4956029;28;45534;-58
2023/12/16 15:31:54;;;;;;;4.27;2.73;;;23.40;30.80;;;;;;4933954;28;47091;-59
2023/12/16 15:34:21;;;;;;;5.63;2.85;;;23.40;30.80;;;;;;4949835;28;45379;-53
2023/12/16 15:36:46;;;;;;;5.45;2.83;;;23.40;30.70;;;;;;4939739;28;45231;-51
2023/12/16 15:39:12;;;;;;;5.70;3.10;;;23.50;30.60;;;;;;4949933;28;45316;-51
2023/12/16 15:41:38;;;;;;;6.28;3.22;;;23.50;30.60;;;;;;4951648;28;45352;-48
2023/12/16 15:44:07;;;;;;;5.75;3.53;;;23.50;30.50;;;;;;4956909;28;46542;-46
2023/12/16 15:46:53;;;;;;;6.68;3.53;;;23.50;30.50;;;;;;4934711;28;45892;-52
2023/12/16 15:49:23;;;;;;;6.72;3.85;;;23.60;30.60;;;;;;4953307;28;45711;-48
2023/12/16 15:51:50;;;;;;;7.25;4.15;;;23.60;30.40;;;;;;4944535;28;44767;-56
2023/12/16 15:54:15;;;;;;;6.37;3.90;;;23.60;30.50;;;;;;4956972;28;45521;-49
2023/12/16 15:56:42;;;;;;;5.10;3.38;;;23.60;30.40;;;;;;4947524;28;45259;-48
2023/12/16 15:59:08;;;;;;;6.72;3.72;;;23.70;30.30;;;;;;4946683;28;44859;-51
2023/12/16 16:01:35;;;;;;;5.37;3.50;;;23.70;30.30;;;;;;4913594;28;46646;-56
2023/12/16 16:04:04;;;;;;;6.90;4.05;;;23.70;30.20;;;;;;4951025;28;45701;-52
2023/12/16 16:06:30;;;;;;;7.57;4.50;;;23.70;30.20;;;;;;4947039;28;46365;-49
2023/12/16 16:08:56;;;;;;;8.30;4.60;;;23.70;30.10;;;;;;4950679;28;45678;-55
2023/12/16 16:11:22;;;;;;;7.63;4.43;;;23.80;30.10;;;;;;4943503;28;45406;-50
2023/12/16 16:13:48;;;;;;;7.33;4.67;;;23.80;30.00;;;;;;4932993;28;46184;-52
2023/12/16 16:16:14;;;;;;;8.23;4.40;;;23.80;30.00;;;;;;4932718;28;45987;-49
2023/12/16 16:18:39;;;;;;;7.88;4.40;;;23.90;30.00;;;;;;4953973;28;45418;-48
2023/12/16 16:21:05;;;;;;;6.53;4.38;;;23.90;30.00;;;;;;4941157;28;45227;-46
2023/12/16 16:23:30;;;;;;;7.97;4.68;;;23.90;29.90;;;;;;4953254;28;46129;-46
2023/12/16 16:25:56;;;;;;;8.52;4.70;;;24.00;30.00;;;;;;4945913;28;45367;-46
2023/12/16 16:28:22;;;;;;;6.80;4.43;;;24.00;29.90;;;;;;4952335;28;45504;-51
2023/12/16 16:30:47;;;;;;;7.27;4.57;;;24.00;29.90;;;;;;4936447;28;45313;-52
2023/12/16 16:33:16;;;;;;;7.63;4.40;;;24.00;29.80;;;;;;4936468;28;45794;-50
2023/12/16 16:35:42;;;;;;;6.63;4.40;;;24.10;29.80;;;;;;4927744;28;45676;-47
2023/12/16 16:38:07;;;;;;;7.32;4.60;;;24.10;29.80;;;;;;4948873;28;45557;-48
2023/12/16 16:40:33;;;;;;;6.75;4.10;;;24.10;29.70;;;;;;4913284;28;45774;-49
2023/12/16 16:42:59;;;;;;;7.45;4.32;;;24.10;29.70;;;;;;4948353;28;45346;-57
2023/12/16 16:45:25;;;;;;;6.78;4.22;;;24.10;29.70;;;;;;4941097;28;45195;-51